Cornwall, Vermont
Current Conditions -  °F | °C
As of 10:35 AM on Friday 24 Oct 2014 (Local Time) from K6B0 Reporting Station
Drizzle Drizzle  
Wind Chill: 36°   Ceiling: 600
Heat Index: 42°   Visibility: 3mi
Dew Point: 42°   Wind: 10mph
Humidity: 100%   Direction: 10°N
Pressure: 29.84"   Gusts: 17mph
Location:  43.9961°N, 73.1846°W
Report Text: K6B0 241435Z AUTO 01009G15KT 3SM -DZ OVC006 06/06 A2984 RMK AO2 T00570057
Loading
Personal Weather Stations






























Interactive Weather Map
Tropical Storm Tracking
New forecast layout! Learn more

10-Day Weather Forecast

Advertisements
Track Severe Weather on mobile